Amor, Minnesota
Current Conditions -  °F | °C
As of 9:14 PM on Monday 20 Oct 2014 (Local Time) from KFFM Reporting Station
Clear Clear  
Wind Chill: 46°   Ceiling: Unl
Heat Index: 48°   Visibility: 10mi
Dew Point: 34°   Wind: 5mph
Humidity: 57%   Direction: 70°ENE
Pressure: 30.06"   Gusts: NA
Location:  46.3166°N, 95.7183°W
Report Text: KFFM 210214Z AUTO 07004KT 10SM CLR 09/01 A3006 RMK AO2
Loading
Personal Weather Stations






























Interactive Weather Map
Tropical Storm Tracking
New forecast layout! Learn more

10-Day Weather Forecast

Advertisements
Track Severe Weather on mobile